sensor_id;sensor_type;location;lat;lon;timestamp;temperature;humidity
7028;DHT22;3555;53.248;10.336;2023-03-26T00:00:38;7.70;99.90
7028;DHT22;3555;53.248;10.336;2023-03-26T00:03:09;7.70;99.90
7028;DHT22;3555;53.248;10.336;2023-03-26T00:05:37;7.80;99.90
7028;DHT22;3555;53.248;10.336;2023-03-26T00:08:04;7.80;99.90
7028;DHT22;3555;53.248;10.336;2023-03-26T00:10:33;7.80;99.90
7028;DHT22;3555;53.248;10.336;2023-03-26T00:13:00;7.80;99.90
7028;DHT22;3555;53.248;10.336;2023-03-26T00:15:27;7.90;99.90
7028;DHT22;3555;53.248;10.336;2023-03-26T00:17:54;7.80;99.90
7028;DHT22;3555;53.248;10.336;2023-03-26T00:20:22;7.90;99.90
7028;DHT22;3555;53.248;10.336;2023-03-26T00:22:49;7.90;99.90
7028;DHT22;3555;53.248;10.336;2023-03-26T00:25:18;7.80;99.90
7028;DHT22;3555;53.248;10.336;2023-03-26T00:27:46;7.90;99.90
7028;DHT22;3555;53.248;10.336;2023-03-26T00:30:14;7.90;99.90
7028;DHT22;3555;53.248;10.336;2023-03-26T00:32:41;7.90;99.90
7028;DHT22;3555;53.248;10.336;2023-03-26T00:35:08;7.90;99.90
7028;DHT22;3555;53.248;10.336;2023-03-26T00:37:37;7.80;99.90
7028;DHT22;3555;53.248;10.336;2023-03-26T00:40:08;7.90;99.90
7028;DHT22;3555;53.248;10.336;2023-03-26T00:42:36;7.90;99.90
7028;DHT22;3555;53.248;10.336;2023-03-26T00:45:03;7.90;99.90
7028;DHT22;3555;53.248;10.336;2023-03-26T00:47:30;7.90;99.90
7028;DHT22;3555;53.248;10.336;2023-03-26T00:49:57;7.80;99.90
7028;DHT22;3555;53.248;10.336;2023-03-26T00:52:24;7.80;99.90
7028;DHT22;3555;53.248;10.336;2023-03-26T00:54:55;7.80;99.90
7028;DHT22;3555;53.248;10.336;2023-03-26T00:57:22;7.90;99.90
7028;DHT22;3555;53.248;10.336;2023-03-26T00:59:54;7.80;99.90
7028;DHT22;3555;53.248;10.336;2023-03-26T01:02:21;7.80;99.90
7028;DHT22;3555;53.248;10.336;2023-03-26T01:04:55;7.90;99.90
7028;DHT22;3555;53.248;10.336;2023-03-26T01:07:24;7.80;99.90
7028;DHT22;3555;53.248;10.336;2023-03-26T01:09:56;7.80;99.90
7028;DHT22;3555;53.248;10.336;2023-03-26T01:12:25;7.90;99.90
7028;DHT22;3555;53.248;10.336;2023-03-26T01:14:55;7.90;99.90
7028;DHT22;3555;53.248;10.336;2023-03-26T01:17:25;7.90;99.90
7028;DHT22;3555;53.248;10.336;2023-03-26T01:20:08;8.00;99.90
7028;DHT22;3555;53.248;10.336;2023-03-26T01:22:40;8.00;99.90
7028;DHT22;3555;53.248;10.336;2023-03-26T01:25:09;8.10;99.90
7028;DHT22;3555;53.248;10.336;2023-03-26T01:27:39;8.00;99.90
7028;DHT22;3555;53.248;10.336;2023-03-26T01:30:12;8.10;99.90
7028;DHT22;3555;53.248;10.336;2023-03-26T01:32:49;7.90;99.90
7028;DHT22;3555;53.248;10.336;2023-03-26T01:35:28;7.80;99.90
7028;DHT22;3555;53.248;10.336;2023-03-26T01:38:02;7.70;99.90
7028;DHT22;3555;53.248;10.336;2023-03-26T01:40:40;7.80;99.90
7028;DHT22;3555;53.248;10.336;2023-03-26T01:43:12;7.70;99.90
7028;DHT22;3555;53.248;10.336;2023-03-26T01:45:45;7.50;99.90
7028;DHT22;3555;53.248;10.336;2023-03-26T01:48:14;7.50;99.90
7028;DHT22;3555;53.248;10.336;2023-03-26T01:50:41;7.50;99.90
7028;DHT22;3555;53.248;10.336;2023-03-26T01:53:11;7.50;99.90
7028;DHT22;3555;53.248;10.336;2023-03-26T01:55:47;7.30;99.90
7028;DHT22;3555;53.248;10.336;2023-03-26T01:58:26;7.10;99.90
7028;DHT22;3555;53.248;10.336;2023-03-26T02:01:05;7.40;99.90
7028;DHT22;3555;53.248;10.336;2023-03-26T02:03:40;7.30;99.90
7028;DHT22;3555;53.248;10.336;2023-03-26T02:06:16;7.30;99.90
7028;DHT22;3555;53.248;10.336;2023-03-26T02:08:51;7.40;99.90
7028;DHT22;3555;53.248;10.336;2023-03-26T02:11:20;7.30;99.90
7028;DHT22;3555;53.248;10.336;2023-03-26T02:13:47;7.40;99.90
7028;DHT22;3555;53.248;10.336;2023-03-26T02:16:16;7.30;99.90
7028;DHT22;3555;53.248;10.336;2023-03-26T02:18:43;7.30;99.90
7028;DHT22;3555;53.248;10.336;2023-03-26T02:21:14;7.30;99.90
7028;DHT22;3555;53.248;10.336;2023-03-26T02:23:46;7.10;99.90
7028;DHT22;3555;53.248;10.336;2023-03-26T02:26:15;7.10;99.90
7028;DHT22;3555;53.248;10.336;2023-03-26T02:28:44;7.10;99.90
7028;DHT22;3555;53.248;10.336;2023-03-26T02:31:11;7.00;99.90
7028;DHT22;3555;53.248;10.336;2023-03-26T02:33:38;7.00;99.90
7028;DHT22;3555;53.248;10.336;2023-03-26T02:36:06;7.00;99.90
7028;DHT22;3555;53.248;10.336;2023-03-26T02:38:35;7.00;99.90
7028;DHT22;3555;53.248;10.336;2023-03-26T02:41:02;7.00;99.90
7028;DHT22;3555;53.248;10.336;2023-03-26T02:43:29;7.00;99.90
7028;DHT22;3555;53.248;10.336;2023-03-26T02:45:57;7.10;99.90
7028;DHT22;3555;53.248;10.336;2023-03-26T02:48:24;7.20;99.90
7028;DHT22;3555;53.248;10.336;2023-03-26T02:50:52;7.20;99.90
7028;DHT22;3555;53.248;10.336;2023-03-26T02:53:20;7.40;99.90
7028;DHT22;3555;53.248;10.336;2023-03-26T02:55:48;7.40;99.90
7028;DHT22;3555;53.248;10.336;2023-03-26T02:58:15;7.50;99.90
7028;DHT22;3555;53.248;10.336;2023-03-26T03:00:42;7.60;99.90
7028;DHT22;3555;53.248;10.336;2023-03-26T03:03:10;7.70;99.90
7028;DHT22;3555;53.248;10.336;2023-03-26T03:05:37;7.60;99.90
7028;DHT22;3555;53.248;10.336;2023-03-26T03:08:07;7.60;99.90
7028;DHT22;3555;53.248;10.336;2023-03-26T03:10:35;7.50;99.90
7028;DHT22;3555;53.248;10.336;2023-03-26T03:13:02;7.30;99.90
7028;DHT22;3555;53.248;10.336;2023-03-26T03:15:32;7.30;99.90
7028;DHT22;3555;53.248;10.336;2023-03-26T03:17:59;7.20;99.90
7028;DHT22;3555;53.248;10.336;2023-03-26T03:20:27;7.10;99.90
7028;DHT22;3555;53.248;10.336;2023-03-26T03:22:55;7.20;99.90
7028;DHT22;3555;53.248;10.336;2023-03-26T03:25:22;7.20;99.90
7028;DHT22;3555;53.248;10.336;2023-03-26T03:27:50;7.10;99.90
7028;DHT22;3555;53.248;10.336;2023-03-26T03:30:18;7.10;99.90
7028;DHT22;3555;53.248;10.336;2023-03-26T03:32:45;7.10;99.90
7028;DHT22;3555;53.248;10.336;2023-03-26T03:35:12;7.10;99.90
7028;DHT22;3555;53.248;10.336;2023-03-26T03:37:41;7.00;99.90
7028;DHT22;3555;53.248;10.336;2023-03-26T03:40:08;7.10;99.90
7028;DHT22;3555;53.248;10.336;2023-03-26T03:42:36;7.10;99.90
7028;DHT22;3555;53.248;10.336;2023-03-26T03:45:03;7.00;99.90
7028;DHT22;3555;53.248;10.336;2023-03-26T03:47:30;6.90;99.90
7028;DHT22;3555;53.248;10.336;2023-03-26T03:49:57;6.80;99.90
7028;DHT22;3555;53.248;10.336;2023-03-26T03:52:25;6.90;99.90
7028;DHT22;3555;53.248;10.336;2023-03-26T03:54:54;6.90;99.90
7028;DHT22;3555;53.248;10.336;2023-03-26T03:57:22;6.90;99.90
7028;DHT22;3555;53.248;10.336;2023-03-26T03:59:49;7.00;99.90
7028;DHT22;3555;53.248;10.336;2023-03-26T04:02:15;7.00;99.90
7028;DHT22;3555;53.248;10.336;2023-03-26T04:04:50;7.00;99.90
7028;DHT22;3555;53.248;10.336;2023-03-26T04:07:17;7.00;99.90
7028;DHT22;3555;53.248;10.336;2023-03-26T04:09:44;7.00;99.90
7028;DHT22;3555;53.248;10.336;2023-03-26T04:12:12;6.90;99.90
7028;DHT22;3555;53.248;10.336;2023-03-26T04:14:39;7.00;99.90
7028;DHT22;3555;53.248;10.336;2023-03-26T04:17:06;6.90;99.90
7028;DHT22;3555;53.248;10.336;2023-03-26T04:19:34;6.80;99.90
7028;DHT22;3555;53.248;10.336;2023-03-26T04:22:01;6.90;99.90
7028;DHT22;3555;53.248;10.336;2023-03-26T04:24:28;7.00;99.90
7028;DHT22;3555;53.248;10.336;2023-03-26T04:26:59;7.10;99.90
7028;DHT22;3555;53.248;10.336;2023-03-26T04:29:36;7.10;99.90
7028;DHT22;3555;53.248;10.336;2023-03-26T04:32:09;7.10;99.90
7028;DHT22;3555;53.248;10.336;2023-03-26T04:34:37;7.10;99.90
7028;DHT22;3555;53.248;10.336;2023-03-26T04:37:04;7.00;99.90
7028;DHT22;3555;53.248;10.336;2023-03-26T04:39:31;7.00;99.90
7028;DHT22;3555;53.248;10.336;2023-03-26T04:41:59;7.10;99.90
7028;DHT22;3555;53.248;10.336;2023-03-26T04:44:27;7.00;99.90
7028;DHT22;3555;53.248;10.336;2023-03-26T04:46:54;6.90;99.90
7028;DHT22;3555;53.248;10.336;2023-03-26T04:49:21;7.00;99.90
7028;DHT22;3555;53.248;10.336;2023-03-26T04:51:48;7.00;99.90
7028;DHT22;3555;53.248;10.336;2023-03-26T04:54:17;7.00;99.90
7028;DHT22;3555;53.248;10.336;2023-03-26T04:56:50;6.90;99.90
7028;DHT22;3555;53.248;10.336;2023-03-26T04:59:20;6.80;99.90
7028;DHT22;3555;53.248;10.336;2023-03-26T05:01:52;6.90;99.90
7028;DHT22;3555;53.248;10.336;2023-03-26T05:04:18;6.80;99.90
7028;DHT22;3555;53.248;10.336;2023-03-26T05:06:46;6.90;99.90
7028;DHT22;3555;53.248;10.336;2023-03-26T05:09:13;7.00;99.90
7028;DHT22;3555;53.248;10.336;2023-03-26T05:11:40;7.00;99.90
7028;DHT22;3555;53.248;10.336;2023-03-26T05:14:07;7.00;99.90
7028;DHT22;3555;53.248;10.336;2023-03-26T05:16:35;7.00;99.90
7028;DHT22;3555;53.248;10.336;2023-03-26T05:19:05;7.00;99.90
7028;DHT22;3555;53.248;10.336;2023-03-26T05:21:33;6.90;99.90
7028;DHT22;3555;53.248;10.336;2023-03-26T05:24:00;6.90;99.90
7028;DHT22;3555;53.248;10.336;2023-03-26T05:26:28;6.80;99.90
7028;DHT22;3555;53.248;10.336;2023-03-26T05:28:55;6.70;99.90
7028;DHT22;3555;53.248;10.336;2023-03-26T05:31:22;6.70;99.90
7028;DHT22;3555;53.248;10.336;2023-03-26T05:33:49;6.80;99.90
7028;DHT22;3555;53.248;10.336;2023-03-26T05:36:18;6.90;99.90
7028;DHT22;3555;53.248;10.336;2023-03-26T05:38:45;6.90;99.90
7028;DHT22;3555;53.248;10.336;2023-03-26T05:41:15;6.90;99.90
7028;DHT22;3555;53.248;10.336;2023-03-26T05:43:42;7.00;99.90
7028;DHT22;3555;53.248;10.336;2023-03-26T05:46:10;7.10;99.90
7028;DHT22;3555;53.248;10.336;2023-03-26T05:48:37;7.20;99.90
7028;DHT22;3555;53.248;10.336;2023-03-26T05:51:04;7.20;99.90
7028;DHT22;3555;53.248;10.336;2023-03-26T05:53:33;7.20;99.90
7028;DHT22;3555;53.248;10.336;2023-03-26T05:56:00;7.30;99.90
7028;DHT22;3555;53.248;10.336;2023-03-26T05:58:29;7.40;99.90
7028;DHT22;3555;53.248;10.336;2023-03-26T06:00:58;7.40;90.30
7028;DHT22;3555;53.248;10.336;2023-03-26T06:03:27;7.40;99.90
7028;DHT22;3555;53.248;10.336;2023-03-26T06:05:54;7.50;99.90
7028;DHT22;3555;53.248;10.336;2023-03-26T06:08:21;7.50;99.90
7028;DHT22;3555;53.248;10.336;2023-03-26T06:10:50;7.60;99.90
7028;DHT22;3555;53.248;10.336;2023-03-26T06:13:17;7.60;99.90
7028;DHT22;3555;53.248;10.336;2023-03-26T06:15:44;7.70;99.90
7028;DHT22;3555;53.248;10.336;2023-03-26T06:18:11;7.20;1.00
7028;DHT22;3555;53.248;10.336;2023-03-26T06:20:40;7.10;1.00
7028;DHT22;3555;53.248;10.336;2023-03-26T06:23:06;7.00;99.90
7028;DHT22;3555;53.248;10.336;2023-03-26T06:25:33;7.00;60.40
7028;DHT22;3555;53.248;10.336;2023-03-26T06:28:02;7.10;99.90
7028;DHT22;3555;53.248;10.336;2023-03-26T06:30:29;7.20;1.00
7028;DHT22;3555;53.248;10.336;2023-03-26T06:32:55;7.10;1.00
7028;DHT22;3555;53.248;10.336;2023-03-26T06:35:22;7.10;1.00
7028;DHT22;3555;53.248;10.336;2023-03-26T06:37:49;7.10;1.00
7028;DHT22;3555;53.248;10.336;2023-03-26T06:40:16;7.10;1.00
7028;DHT22;3555;53.248;10.336;2023-03-26T06:42:43;7.20;1.00
7028;DHT22;3555;53.248;10.336;2023-03-26T06:45:12;7.20;1.00
7028;DHT22;3555;53.248;10.336;2023-03-26T06:47:38;7.30;14.50
7028;DHT22;3555;53.248;10.336;2023-03-26T06:50:06;7.40;1.00
7028;DHT22;3555;53.248;10.336;2023-03-26T06:52:34;7.40;1.00
7028;DHT22;3555;53.248;10.336;2023-03-26T06:55:00;7.40;1.00
7028;DHT22;3555;53.248;10.336;2023-03-26T06:57:27;7.60;1.00
7028;DHT22;3555;53.248;10.336;2023-03-26T06:59:54;7.50;1.00
7028;DHT22;3555;53.248;10.336;2023-03-26T07:02:23;7.60;1.00
7028;DHT22;3555;53.248;10.336;2023-03-26T07:04:50;7.60;1.00
7028;DHT22;3555;53.248;10.336;2023-03-26T07:07:17;7.80;1.00
7028;DHT22;3555;53.248;10.336;2023-03-26T07:09:46;7.80;99.90
7028;DHT22;3555;53.248;10.336;2023-03-26T07:12:13;7.80;1.00
7028;DHT22;3555;53.248;10.336;2023-03-26T07:14:40;7.70;1.00
7028;DHT22;3555;53.248;10.336;2023-03-26T07:17:07;7.80;99.90
7028;DHT22;3555;53.248;10.336;2023-03-26T07:19:35;7.90;96.20
7028;DHT22;3555;53.248;10.336;2023-03-26T07:22:02;7.90;99.90
7028;DHT22;3555;53.248;10.336;2023-03-26T07:24:30;7.90;99.90
7028;DHT22;3555;53.248;10.336;2023-03-26T07:27:01;8.10;1.00
7028;DHT22;3555;53.248;10.336;2023-03-26T07:29:34;8.00;1.00
7028;DHT22;3555;53.248;10.336;2023-03-26T07:32:11;8.10;99.90
7028;DHT22;3555;53.248;10.336;2023-03-26T07:34:48;8.10;1.00
7028;DHT22;3555;53.248;10.336;2023-03-26T07:37:28;8.20;99.90
7028;DHT22;3555;53.248;10.336;2023-03-26T07:40:00;8.30;1.00
7028;DHT22;3555;53.248;10.336;2023-03-26T07:42:38;8.20;99.90
7028;DHT22;3555;53.248;10.336;2023-03-26T07:45:18;8.30;99.90
7028;DHT22;3555;53.248;10.336;2023-03-26T07:47:47;8.30;99.90
7028;DHT22;3555;53.248;10.336;2023-03-26T07:50:22;8.30;1.00
7028;DHT22;3555;53.248;10.336;2023-03-26T07:52:49;8.40;1.00
7028;DHT22;3555;53.248;10.336;2023-03-26T07:55:17;8.40;1.00
7028;DHT22;3555;53.248;10.336;2023-03-26T07:57:52;8.20;99.90
7028;DHT22;3555;53.248;10.336;2023-03-26T08:00:27;8.20;58.60
7028;DHT22;3555;53.248;10.336;2023-03-26T08:03:08;8.10;99.90
7028;DHT22;3555;53.248;10.336;2023-03-26T08:05:42;8.20;1.00
7028;DHT22;3555;53.248;10.336;2023-03-26T08:08:15;8.10;99.90
7028;DHT22;3555;53.248;10.336;2023-03-26T08:11:00;8.00;1.00
7028;DHT22;3555;53.248;10.336;2023-03-26T08:13:36;7.90;1.00
7028;DHT22;3555;53.248;10.336;2023-03-26T08:16:08;7.90;1.00
7028;DHT22;3555;53.248;10.336;2023-03-26T08:18:47;8.00;1.00
7028;DHT22;3555;53.248;10.336;2023-03-26T08:21:20;8.00;99.90
7028;DHT22;3555;53.248;10.336;2023-03-26T08:24:00;8.10;1.00
7028;DHT22;3555;53.248;10.336;2023-03-26T08:26:36;8.10;1.00
7028;DHT22;3555;53.248;10.336;2023-03-26T08:29:17;8.20;1.00
7028;DHT22;3555;53.248;10.336;2023-03-26T08:31:47;8.40;1.00
7028;DHT22;3555;53.248;10.336;2023-03-26T08:34:14;8.40;99.90
7028;DHT22;3555;53.248;10.336;2023-03-26T08:36:43;8.50;1.00
7028;DHT22;3555;53.248;10.336;2023-03-26T08:39:10;8.50;1.00
7028;DHT22;3555;53.248;10.336;2023-03-26T08:48:00;8.60;1.00
7028;DHT22;3555;53.248;10.336;2023-03-26T08:54:26;8.60;1.00
7028;DHT22;3555;53.248;10.336;2023-03-26T08:57:11;8.60;1.00
7028;DHT22;3555;53.248;10.336;2023-03-26T09:00:10;8.70;1.00
7028;DHT22;3555;53.248;10.336;2023-03-26T09:02:55;8.60;1.00
7028;DHT22;3555;53.248;10.336;2023-03-26T09:06:00;8.60;1.00
7028;DHT22;3555;53.248;10.336;2023-03-26T09:09:13;8.30;99.90
7028;DHT22;3555;53.248;10.336;2023-03-26T09:18:08;8.80;1.00
7028;DHT22;3555;53.248;10.336;2023-03-26T09:20:58;8.70;99.90
7028;DHT22;3555;53.248;10.336;2023-03-26T09:23:50;8.90;1.00
7028;DHT22;3555;53.248;10.336;2023-03-26T09:26:25;9.00;99.90
7028;DHT22;3555;53.248;10.336;2023-03-26T09:29:41;9.20;99.90
7028;DHT22;3555;53.248;10.336;2023-03-26T09:35:37;8.90;1.00
7028;DHT22;3555;53.248;10.336;2023-03-26T09:38:24;9.10;99.90
7028;DHT22;3555;53.248;10.336;2023-03-26T09:41:04;9.10;99.90
7028;DHT22;3555;53.248;10.336;2023-03-26T09:43:53;9.20;1.00
7028;DHT22;3555;53.248;10.336;2023-03-26T09:46:29;9.20;1.00
7028;DHT22;3555;53.248;10.336;2023-03-26T09:52:15;9.30;99.90
7028;DHT22;3555;53.248;10.336;2023-03-26T09:57:55;9.40;99.90
7028;DHT22;3555;53.248;10.336;2023-03-26T10:00:28;9.30;1.00
7028;DHT22;3555;53.248;10.336;2023-03-26T10:03:19;9.30;57.00
7028;DHT22;3555;53.248;10.336;2023-03-26T10:06:05;9.50;99.90
7028;DHT22;3555;53.248;10.336;2023-03-26T10:08:47;9.60;1.00
7028;DHT22;3555;53.248;10.336;2023-03-26T10:11:22;9.70;1.00
7028;DHT22;3555;53.248;10.336;2023-03-26T10:13:58;9.70;1.00
7028;DHT22;3555;53.248;10.336;2023-03-26T10:16:36;9.80;1.00
7028;DHT22;3555;53.248;10.336;2023-03-26T10:19:23;9.80;1.00
7028;DHT22;3555;53.248;10.336;2023-03-26T10:21:57;9.80;1.00
7028;DHT22;3555;53.248;10.336;2023-03-26T10:24:39;9.90;1.00
7028;DHT22;3555;53.248;10.336;2023-03-26T10:27:23;10.00;1.00
7028;DHT22;3555;53.248;10.336;2023-03-26T10:30:35;10.20;1.00
7028;DHT22;3555;53.248;10.336;2023-03-26T10:33:13;10.20;1.00
7028;DHT22;3555;53.248;10.336;2023-03-26T10:36:04;10.40;1.00
7028;DHT22;3555;53.248;10.336;2023-03-26T10:38:51;10.40;1.00
7028;DHT22;3555;53.248;10.336;2023-03-26T10:41:25;10.50;1.00
7028;DHT22;3555;53.248;10.336;2023-03-26T10:44:03;10.50;1.00
7028;DHT22;3555;53.248;10.336;2023-03-26T10:46:56;10.70;1.00
7028;DHT22;3555;53.248;10.336;2023-03-26T10:49:44;10.90;99.90
7028;DHT22;3555;53.248;10.336;2023-03-26T10:52:18;11.20;1.00
7028;DHT22;3555;53.248;10.336;2023-03-26T10:54:54;11.20;99.90
7028;DHT22;3555;53.248;10.336;2023-03-26T10:57:36;11.20;99.90
7028;DHT22;3555;53.248;10.336;2023-03-26T11:00:14;11.30;99.90
7028;DHT22;3555;53.248;10.336;2023-03-26T11:02:48;11.30;1.00
7028;DHT22;3555;53.248;10.336;2023-03-26T11:05:25;11.50;99.90
7028;DHT22;3555;53.248;10.336;2023-03-26T11:08:00;11.60;99.90
7028;DHT22;3555;53.248;10.336;2023-03-26T11:10:42;11.80;99.90
7028;DHT22;3555;53.248;10.336;2023-03-26T11:13:18;11.80;99.90
7028;DHT22;3555;53.248;10.336;2023-03-26T11:15:49;11.90;99.90
7028;DHT22;3555;53.248;10.336;2023-03-26T11:18:21;11.90;99.90
7028;DHT22;3555;53.248;10.336;2023-03-26T11:20:53;11.70;99.90
7028;DHT22;3555;53.248;10.336;2023-03-26T11:23:33;11.80;99.90
7028;DHT22;3555;53.248;10.336;2023-03-26T11:26:10;12.10;99.90
7028;DHT22;3555;53.248;10.336;2023-03-26T11:29:00;12.30;99.90
7028;DHT22;3555;53.248;10.336;2023-03-26T11:31:37;12.60;99.90
7028;DHT22;3555;53.248;10.336;2023-03-26T11:34:12;12.70;1.00
7028;DHT22;3555;53.248;10.336;2023-03-26T11:36:44;12.50;43.70
7028;DHT22;3555;53.248;10.336;2023-03-26T11:39:22;12.70;99.90
7028;DHT22;3555;53.248;10.336;2023-03-26T11:41:53;13.10;99.90
7028;DHT22;3555;53.248;10.336;2023-03-26T11:44:25;13.50;43.80
7028;DHT22;3555;53.248;10.336;2023-03-26T11:46:56;13.70;1.00
7028;DHT22;3555;53.248;10.336;2023-03-26T11:49:26;13.60;1.00
7028;DHT22;3555;53.248;10.336;2023-03-26T11:51:54;13.50;1.00
7028;DHT22;3555;53.248;10.336;2023-03-26T11:54:22;13.50;1.00
7028;DHT22;3555;53.248;10.336;2023-03-26T11:56:51;13.80;93.10
7028;DHT22;3555;53.248;10.336;2023-03-26T11:59:21;13.40;1.00
7028;DHT22;3555;53.248;10.336;2023-03-26T12:01:55;13.50;1.00
7028;DHT22;3555;53.248;10.336;2023-03-26T12:04:25;13.50;1.00
7028;DHT22;3555;53.248;10.336;2023-03-26T12:06:55;13.70;1.00
7028;DHT22;3555;53.248;10.336;2023-03-26T12:09:23;13.90;1.00
7028;DHT22;3555;53.248;10.336;2023-03-26T12:11:53;13.90;99.90
7028;DHT22;3555;53.248;10.336;2023-03-26T12:14:24;13.70;1.00
7028;DHT22;3555;53.248;10.336;2023-03-26T12:17:02;14.00;50.80
7028;DHT22;3555;53.248;10.336;2023-03-26T12:19:35;14.30;1.00
7028;DHT22;3555;53.248;10.336;2023-03-26T12:22:04;14.80;1.00
7028;DHT22;3555;53.248;10.336;2023-03-26T12:24:34;14.80;1.00
7028;DHT22;3555;53.248;10.336;2023-03-26T12:27:19;14.90;1.00
7028;DHT22;3555;53.248;10.336;2023-03-26T12:29:50;15.00;1.00
7028;DHT22;3555;53.248;10.336;2023-03-26T12:32:19;15.20;1.00
7028;DHT22;3555;53.248;10.336;2023-03-26T12:34:46;15.60;1.00
7028;DHT22;3555;53.248;10.336;2023-03-26T12:37:33;15.50;1.00
7028;DHT22;3555;53.248;10.336;2023-03-26T12:40:07;15.40;1.00
7028;DHT22;3555;53.248;10.336;2023-03-26T12:42:39;14.60;1.00
7028;DHT22;3555;53.248;10.336;2023-03-26T12:45:12;14.20;1.00
7028;DHT22;3555;53.248;10.336;2023-03-26T12:47:39;14.00;1.00
7028;DHT22;3555;53.248;10.336;2023-03-26T12:50:11;14.30;1.00
7028;DHT22;3555;53.248;10.336;2023-03-26T12:52:54;14.70;1.00
7028;DHT22;3555;53.248;10.336;2023-03-26T12:55:38;14.90;1.00
7028;DHT22;3555;53.248;10.336;2023-03-26T12:58:19;14.80;1.00
7028;DHT22;3555;53.248;10.336;2023-03-26T13:00:55;15.10;1.00
7028;DHT22;3555;53.248;10.336;2023-03-26T13:03:41;15.30;1.00
7028;DHT22;3555;53.248;10.336;2023-03-26T13:06:21;15.40;1.00
7028;DHT22;3555;53.248;10.336;2023-03-26T13:09:05;14.90;1.00
7028;DHT22;3555;53.248;10.336;2023-03-26T13:11:44;15.00;1.00
7028;DHT22;3555;53.248;10.336;2023-03-26T13:14:28;14.40;1.00
7028;DHT22;3555;53.248;10.336;2023-03-26T13:17:01;14.20;1.00
7028;DHT22;3555;53.248;10.336;2023-03-26T13:19:33;14.30;1.00
7028;DHT22;3555;53.248;10.336;2023-03-26T13:22:16;14.60;1.00
7028;DHT22;3555;53.248;10.336;2023-03-26T13:24:55;14.70;1.00
7028;DHT22;3555;53.248;10.336;2023-03-26T13:27:39;15.00;1.00
7028;DHT22;3555;53.248;10.336;2023-03-26T13:30:17;15.20;1.00
7028;DHT22;3555;53.248;10.336;2023-03-26T13:32:57;15.30;1.00
7028;DHT22;3555;53.248;10.336;2023-03-26T13:35:38;15.20;1.00
7028;DHT22;3555;53.248;10.336;2023-03-26T13:38:10;15.30;1.00
7028;DHT22;3555;53.248;10.336;2023-03-26T13:40:46;15.30;1.00
7028;DHT22;3555;53.248;10.336;2023-03-26T13:43:31;15.40;1.00
7028;DHT22;3555;53.248;10.336;2023-03-26T13:46:07;15.00;1.00
7028;DHT22;3555;53.248;10.336;2023-03-26T13:48:40;15.10;1.00
7028;DHT22;3555;53.248;10.336;2023-03-26T13:51:11;15.20;1.00
7028;DHT22;3555;53.248;10.336;2023-03-26T13:53:45;15.30;1.00
7028;DHT22;3555;53.248;10.336;2023-03-26T13:56:16;15.20;1.00
7028;DHT22;3555;53.248;10.336;2023-03-26T13:58:51;15.40;1.00
7028;DHT22;3555;53.248;10.336;2023-03-26T14:01:22;15.50;1.00
7028;DHT22;3555;53.248;10.336;2023-03-26T14:04:01;15.40;1.00
7028;DHT22;3555;53.248;10.336;2023-03-26T14:06:39;15.50;1.00
7028;DHT22;3555;53.248;10.336;2023-03-26T14:09:13;15.60;1.00
7028;DHT22;3555;53.248;10.336;2023-03-26T14:11:50;15.70;1.00
7028;DHT22;3555;53.248;10.336;2023-03-26T14:14:27;15.80;1.00
7028;DHT22;3555;53.248;10.336;2023-03-26T14:17:00;15.90;1.00
7028;DHT22;3555;53.248;10.336;2023-03-26T14:19:48;16.00;1.00
7028;DHT22;3555;53.248;10.336;2023-03-26T14:22:21;15.90;1.00
7028;DHT22;3555;53.248;10.336;2023-03-26T14:25:09;15.80;1.00
7028;DHT22;3555;53.248;10.336;2023-03-26T14:27:50;15.80;1.00
7028;DHT22;3555;53.248;10.336;2023-03-26T14:30:53;15.80;1.00
7028;DHT22;3555;53.248;10.336;2023-03-26T14:33:48;15.90;1.00
7028;DHT22;3555;53.248;10.336;2023-03-26T14:36:29;15.90;1.00
7028;DHT22;3555;53.248;10.336;2023-03-26T14:39:29;15.50;1.00
7028;DHT22;3555;53.248;10.336;2023-03-26T14:42:01;15.40;1.00
7028;DHT22;3555;53.248;10.336;2023-03-26T14:44:46;15.10;1.00
7028;DHT22;3555;53.248;10.336;2023-03-26T14:47:20;15.10;1.00
7028;DHT22;3555;53.248;10.336;2023-03-26T14:52:45;15.00;1.00
7028;DHT22;3555;53.248;10.336;2023-03-26T14:55:17;14.70;1.00
7028;DHT22;3555;53.248;10.336;2023-03-26T15:01:19;14.30;1.00
7028;DHT22;3555;53.248;10.336;2023-03-26T15:07:08;14.50;1.00
7028;DHT22;3555;53.248;10.336;2023-03-26T15:12:55;14.90;1.00
7028;DHT22;3555;53.248;10.336;2023-03-26T15:28:06;14.80;1.00
7028;DHT22;3555;53.248;10.336;2023-03-26T15:31:10;14.80;1.00
7028;DHT22;3555;53.248;10.336;2023-03-26T15:34:07;15.00;1.00
7028;DHT22;3555;53.248;10.336;2023-03-26T15:40:09;15.10;1.00
7028;DHT22;3555;53.248;10.336;2023-03-26T15:42:47;14.90;1.00
7028;DHT22;3555;53.248;10.336;2023-03-26T15:45:29;14.90;1.00
7028;DHT22;3555;53.248;10.336;2023-03-26T15:51:21;14.50;1.00
7028;DHT22;3555;53.248;10.336;2023-03-26T15:53:54;14.50;1.00
7028;DHT22;3555;53.248;10.336;2023-03-26T15:56:37;14.40;1.00
7028;DHT22;3555;53.248;10.336;2023-03-26T15:59:07;14.50;1.00
7028;DHT22;3555;53.248;10.336;2023-03-26T16:01:49;14.50;1.00
7028;DHT22;3555;53.248;10.336;2023-03-26T16:04:38;14.60;1.00
7028;DHT22;3555;53.248;10.336;2023-03-26T16:07:23;14.40;1.00
7028;DHT22;3555;53.248;10.336;2023-03-26T16:10:01;14.40;1.00
7028;DHT22;3555;53.248;10.336;2023-03-26T16:12:45;14.30;1.00
7028;DHT22;3555;53.248;10.336;2023-03-26T16:15:28;14.20;1.00
7028;DHT22;3555;53.248;10.336;2023-03-26T16:18:19;14.10;1.00
7028;DHT22;3555;53.248;10.336;2023-03-26T16:20:51;13.90;1.00
7028;DHT22;3555;53.248;10.336;2023-03-26T16:23:26;13.90;1.00
7028;DHT22;3555;53.248;10.336;2023-03-26T16:25:58;13.80;1.00
7028;DHT22;3555;53.248;10.336;2023-03-26T16:29:01;13.80;1.00
7028;DHT22;3555;53.248;10.336;2023-03-26T16:31:31;13.50;1.00
7028;DHT22;3555;53.248;10.336;2023-03-26T16:34:20;13.40;1.00
7028;DHT22;3555;53.248;10.336;2023-03-26T16:36:50;13.40;1.00
7028;DHT22;3555;53.248;10.336;2023-03-26T16:39:22;13.30;1.00
7028;DHT22;3555;53.248;10.336;2023-03-26T16:42:02;13.00;1.00
7028;DHT22;3555;53.248;10.336;2023-03-26T16:44:40;13.00;1.00
7028;DHT22;3555;53.248;10.336;2023-03-26T16:47:20;12.90;1.00
7028;DHT22;3555;53.248;10.336;2023-03-26T16:49:56;13.00;1.00
7028;DHT22;3555;53.248;10.336;2023-03-26T16:52:34;13.10;1.00
7028;DHT22;3555;53.248;10.336;2023-03-26T16:55:17;13.10;1.00
7028;DHT22;3555;53.248;10.336;2023-03-26T16:57:52;13.10;1.00
7028;DHT22;3555;53.248;10.336;2023-03-26T17:00:38;13.00;1.00
7028;DHT22;3555;53.248;10.336;2023-03-26T17:03:31;13.00;1.00
7028;DHT22;3555;53.248;10.336;2023-03-26T17:06:05;12.80;1.00
7028;DHT22;3555;53.248;10.336;2023-03-26T17:08:40;12.60;1.00
7028;DHT22;3555;53.248;10.336;2023-03-26T17:11:18;12.60;1.00
7028;DHT22;3555;53.248;10.336;2023-03-26T17:13:56;12.70;1.00
7028;DHT22;3555;53.248;10.336;2023-03-26T17:16:32;12.50;1.00
7028;DHT22;3555;53.248;10.336;2023-03-26T17:19:05;12.50;1.00
7028;DHT22;3555;53.248;10.336;2023-03-26T17:21:44;12.30;1.00
7028;DHT22;3555;53.248;10.336;2023-03-26T17:24:17;12.20;1.00
7028;DHT22;3555;53.248;10.336;2023-03-26T17:26:54;12.10;1.00
7028;DHT22;3555;53.248;10.336;2023-03-26T17:29:27;11.80;1.00
7028;DHT22;3555;53.248;10.336;2023-03-26T17:32:05;11.80;1.00
7028;DHT22;3555;53.248;10.336;2023-03-26T17:34:42;11.60;1.00
7028;DHT22;3555;53.248;10.336;2023-03-26T17:37:42;11.60;43.80
7028;DHT22;3555;53.248;10.336;2023-03-26T17:40:44;11.40;31.30
7028;DHT22;3555;53.248;10.336;2023-03-26T17:43:32;11.30;48.30